sensor_id;sensor_type;location;lat;lon;timestamp;P1;durP1;ratioP1;P2;durP2;ratioP2
45342;SDS011;31077;50.872;4.352;2023-03-14T00:01:53;3.00;;;1.13;;
45342;SDS011;31077;50.872;4.352;2023-03-14T00:04:18;4.18;;;1.20;;
45342;SDS011;31077;50.872;4.352;2023-03-14T00:06:44;2.75;;;1.00;;
45342;SDS011;31077;50.872;4.352;2023-03-14T00:09:11;3.22;;;1.00;;
45342;SDS011;31077;50.872;4.352;2023-03-14T00:11:38;3.28;;;1.38;;
45342;SDS011;31077;50.872;4.352;2023-03-14T00:14:04;3.50;;;1.23;;
45342;SDS011;31077;50.872;4.352;2023-03-14T00:16:30;2.35;;;0.95;;
45342;SDS011;31077;50.872;4.352;2023-03-14T00:18:57;1.77;;;0.82;;
45342;SDS011;31077;50.872;4.352;2023-03-14T00:21:24;18.25;;;1.13;;
45342;SDS011;31077;50.872;4.352;2023-03-14T00:23:50;3.60;;;1.38;;
45342;SDS011;31077;50.872;4.352;2023-03-14T00:26:17;6.28;;;1.20;;
45342;SDS011;31077;50.872;4.352;2023-03-14T00:28:45;3.30;;;1.10;;
45342;SDS011;31077;50.872;4.352;2023-03-14T00:31:12;11.23;;;1.17;;
45342;SDS011;31077;50.872;4.352;2023-03-14T00:33:40;1.88;;;0.90;;
45342;SDS011;31077;50.872;4.352;2023-03-14T00:36:07;4.97;;;0.93;;
45342;SDS011;31077;50.872;4.352;2023-03-14T00:38:38;3.00;;;1.13;;
45342;SDS011;31077;50.872;4.352;2023-03-14T00:41:06;8.25;;;0.90;;
45342;SDS011;31077;50.872;4.352;2023-03-14T00:43:33;2.95;;;1.20;;
45342;SDS011;31077;50.872;4.352;2023-03-14T00:45:59;4.68;;;0.90;;
45342;SDS011;31077;50.872;4.352;2023-03-14T00:48:25;5.15;;;1.30;;
45342;SDS011;31077;50.872;4.352;2023-03-14T00:50:51;4.10;;;1.00;;
45342;SDS011;31077;50.872;4.352;2023-03-14T00:53:17;5.65;;;1.20;;
45342;SDS011;31077;50.872;4.352;2023-03-14T00:55:43;4.40;;;1.20;;
45342;SDS011;31077;50.872;4.352;2023-03-14T00:58:09;3.85;;;1.08;;
45342;SDS011;31077;50.872;4.352;2023-03-14T01:00:36;3.65;;;1.17;;
45342;SDS011;31077;50.872;4.352;2023-03-14T01:03:03;4.13;;;1.45;;
45342;SDS011;31077;50.872;4.352;2023-03-14T01:05:29;3.85;;;1.23;;
45342;SDS011;31077;50.872;4.352;2023-03-14T01:07:55;4.50;;;1.25;;
45342;SDS011;31077;50.872;4.352;2023-03-14T01:10:21;3.85;;;1.20;;
45342;SDS011;31077;50.872;4.352;2023-03-14T01:12:47;3.75;;;1.30;;
45342;SDS011;31077;50.872;4.352;2023-03-14T01:15:13;7.53;;;1.58;;
45342;SDS011;31077;50.872;4.352;2023-03-14T01:17:38;3.53;;;1.05;;
45342;SDS011;31077;50.872;4.352;2023-03-14T01:20:05;3.75;;;1.40;;
45342;SDS011;31077;50.872;4.352;2023-03-14T01:22:34;3.47;;;1.10;;
45342;SDS011;31077;50.872;4.352;2023-03-14T01:25:01;3.13;;;0.85;;
45342;SDS011;31077;50.872;4.352;2023-03-14T01:27:27;5.60;;;1.20;;
45342;SDS011;31077;50.872;4.352;2023-03-14T01:29:53;5.28;;;1.38;;
45342;SDS011;31077;50.872;4.352;2023-03-14T01:32:18;4.05;;;1.40;;
45342;SDS011;31077;50.872;4.352;2023-03-14T01:34:44;3.63;;;1.63;;
45342;SDS011;31077;50.872;4.352;2023-03-14T01:37:10;3.83;;;1.08;;
45342;SDS011;31077;50.872;4.352;2023-03-14T01:39:37;2.75;;;0.98;;
45342;SDS011;31077;50.872;4.352;2023-03-14T01:42:03;3.63;;;1.42;;
45342;SDS011;31077;50.872;4.352;2023-03-14T01:44:46;4.82;;;1.45;;
45342;SDS011;31077;50.872;4.352;2023-03-14T01:47:20;2.92;;;1.30;;
45342;SDS011;31077;50.872;4.352;2023-03-14T01:49:47;3.40;;;1.25;;
45342;SDS011;31077;50.872;4.352;2023-03-14T01:55:07;2.60;;;1.30;;
45342;SDS011;31077;50.872;4.352;2023-03-14T01:58:00;6.75;;;1.52;;
45342;SDS011;31077;50.872;4.352;2023-03-14T02:00:27;2.22;;;1.00;;
45342;SDS011;31077;50.872;4.352;2023-03-14T02:02:56;4.65;;;1.52;;
45342;SDS011;31077;50.872;4.352;2023-03-14T02:05:42;4.57;;;0.90;;
45342;SDS011;31077;50.872;4.352;2023-03-14T02:08:13;2.38;;;1.00;;
45342;SDS011;31077;50.872;4.352;2023-03-14T02:10:44;3.53;;;1.25;;
45342;SDS011;31077;50.872;4.352;2023-03-14T02:13:13;3.58;;;1.27;;
45342;SDS011;31077;50.872;4.352;2023-03-14T02:15:40;4.50;;;1.30;;
45342;SDS011;31077;50.872;4.352;2023-03-14T02:18:07;3.20;;;1.10;;
45342;SDS011;31077;50.872;4.352;2023-03-14T02:23:38;2.22;;;1.20;;
45342;SDS011;31077;50.872;4.352;2023-03-14T02:28:35;2.17;;;1.02;;
45342;SDS011;31077;50.872;4.352;2023-03-14T02:31:00;2.03;;;1.00;;
45342;SDS011;31077;50.872;4.352;2023-03-14T02:33:27;3.40;;;1.10;;
45342;SDS011;31077;50.872;4.352;2023-03-14T02:35:55;2.67;;;0.95;;
45342;SDS011;31077;50.872;4.352;2023-03-14T02:41:06;2.58;;;1.20;;
45342;SDS011;31077;50.872;4.352;2023-03-14T02:43:32;2.85;;;1.00;;
45342;SDS011;31077;50.872;4.352;2023-03-14T02:45:58;4.20;;;1.17;;
45342;SDS011;31077;50.872;4.352;2023-03-14T02:48:29;3.90;;;1.08;;
45342;SDS011;31077;50.872;4.352;2023-03-14T02:51:01;2.63;;;0.93;;
45342;SDS011;31077;50.872;4.352;2023-03-14T02:53:29;2.88;;;1.10;;
45342;SDS011;31077;50.872;4.352;2023-03-14T02:55:56;3.05;;;0.80;;
45342;SDS011;31077;50.872;4.352;2023-03-14T02:58:22;3.30;;;1.20;;
45342;SDS011;31077;50.872;4.352;2023-03-14T03:00:48;2.15;;;0.90;;
45342;SDS011;31077;50.872;4.352;2023-03-14T03:03:14;3.45;;;0.80;;
45342;SDS011;31077;50.872;4.352;2023-03-14T03:05:40;2.03;;;0.90;;
45342;SDS011;31077;50.872;4.352;2023-03-14T03:08:07;2.08;;;0.82;;
45342;SDS011;31077;50.872;4.352;2023-03-14T03:10:33;2.53;;;1.13;;
45342;SDS011;31077;50.872;4.352;2023-03-14T03:12:59;3.60;;;0.88;;
45342;SDS011;31077;50.872;4.352;2023-03-14T03:15:25;3.35;;;1.25;;
45342;SDS011;31077;50.872;4.352;2023-03-14T03:17:51;1.83;;;0.90;;
45342;SDS011;31077;50.872;4.352;2023-03-14T03:20:17;2.55;;;0.98;;
45342;SDS011;31077;50.872;4.352;2023-03-14T03:22:43;3.20;;;1.30;;
45342;SDS011;31077;50.872;4.352;2023-03-14T03:25:09;2.05;;;1.10;;
45342;SDS011;31077;50.872;4.352;2023-03-14T03:27:35;3.97;;;1.15;;
45342;SDS011;31077;50.872;4.352;2023-03-14T03:30:03;2.50;;;1.10;;
45342;SDS011;31077;50.872;4.352;2023-03-14T03:32:30;2.78;;;1.13;;
45342;SDS011;31077;50.872;4.352;2023-03-14T03:34:57;3.38;;;1.50;;
45342;SDS011;31077;50.872;4.352;2023-03-14T03:37:23;3.40;;;1.20;;
45342;SDS011;31077;50.872;4.352;2023-03-14T03:39:52;2.72;;;1.13;;
45342;SDS011;31077;50.872;4.352;2023-03-14T03:42:18;4.03;;;1.35;;
45342;SDS011;31077;50.872;4.352;2023-03-14T03:44:44;2.55;;;1.17;;
45342;SDS011;31077;50.872;4.352;2023-03-14T03:47:10;2.42;;;1.15;;
45342;SDS011;31077;50.872;4.352;2023-03-14T03:49:36;3.72;;;1.20;;
45342;SDS011;31077;50.872;4.352;2023-03-14T03:52:01;3.95;;;1.38;;
45342;SDS011;31077;50.872;4.352;2023-03-14T03:54:27;5.43;;;1.20;;
45342;SDS011;31077;50.872;4.352;2023-03-14T03:56:54;4.32;;;1.70;;
45342;SDS011;31077;50.872;4.352;2023-03-14T03:59:20;2.75;;;1.17;;
45342;SDS011;31077;50.872;4.352;2023-03-14T04:01:46;3.10;;;1.20;;
45342;SDS011;31077;50.872;4.352;2023-03-14T04:04:12;3.40;;;1.38;;
45342;SDS011;31077;50.872;4.352;2023-03-14T04:06:39;3.08;;;1.42;;
45342;SDS011;31077;50.872;4.352;2023-03-14T04:09:06;2.17;;;1.10;;
45342;SDS011;31077;50.872;4.352;2023-03-14T04:11:33;3.03;;;1.27;;
45342;SDS011;31077;50.872;4.352;2023-03-14T04:13:59;2.35;;;1.17;;
45342;SDS011;31077;50.872;4.352;2023-03-14T04:16:25;2.25;;;1.02;;
45342;SDS011;31077;50.872;4.352;2023-03-14T04:18:51;3.95;;;1.30;;
45342;SDS011;31077;50.872;4.352;2023-03-14T04:21:17;4.45;;;1.25;;
45342;SDS011;31077;50.872;4.352;2023-03-14T04:23:43;2.45;;;1.17;;
45342;SDS011;31077;50.872;4.352;2023-03-14T04:26:09;3.28;;;1.40;;
45342;SDS011;31077;50.872;4.352;2023-03-14T04:28:35;2.10;;;1.05;;
45342;SDS011;31077;50.872;4.352;2023-03-14T04:31:13;1.80;;;1.20;;
45342;SDS011;31077;50.872;4.352;2023-03-14T04:33:44;3.25;;;1.10;;
45342;SDS011;31077;50.872;4.352;2023-03-14T04:36:11;1.85;;;1.00;;
45342;SDS011;31077;50.872;4.352;2023-03-14T04:38:37;1.45;;;0.90;;
45342;SDS011;31077;50.872;4.352;2023-03-14T04:41:03;3.63;;;1.40;;
45342;SDS011;31077;50.872;4.352;2023-03-14T04:43:29;2.55;;;1.42;;
45342;SDS011;31077;50.872;4.352;2023-03-14T04:45:56;2.70;;;1.10;;
45342;SDS011;31077;50.872;4.352;2023-03-14T04:48:23;1.98;;;1.15;;
45342;SDS011;31077;50.872;4.352;2023-03-14T04:50:49;3.08;;;1.33;;
45342;SDS011;31077;50.872;4.352;2023-03-14T04:53:22;2.47;;;1.00;;
45342;SDS011;31077;50.872;4.352;2023-03-14T04:55:49;2.25;;;1.00;;
45342;SDS011;31077;50.872;4.352;2023-03-14T04:58:16;2.88;;;1.40;;
45342;SDS011;31077;50.872;4.352;2023-03-14T05:00:42;4.55;;;1.20;;
45342;SDS011;31077;50.872;4.352;2023-03-14T05:03:07;3.03;;;1.25;;
45342;SDS011;31077;50.872;4.352;2023-03-14T05:05:33;3.72;;;0.98;;
45342;SDS011;31077;50.872;4.352;2023-03-14T05:07:59;2.65;;;0.77;;
45342;SDS011;31077;50.872;4.352;2023-03-14T05:10:25;1.75;;;1.00;;
45342;SDS011;31077;50.872;4.352;2023-03-14T05:12:51;2.28;;;1.38;;
45342;SDS011;31077;50.872;4.352;2023-03-14T05:15:16;1.30;;;1.00;;
45342;SDS011;31077;50.872;4.352;2023-03-14T05:17:42;2.25;;;1.00;;
45342;SDS011;31077;50.872;4.352;2023-03-14T05:20:08;4.10;;;1.08;;
45342;SDS011;31077;50.872;4.352;2023-03-14T05:22:35;1.30;;;0.75;;
45342;SDS011;31077;50.872;4.352;2023-03-14T05:25:01;1.33;;;0.90;;
45342;SDS011;31077;50.872;4.352;2023-03-14T05:27:26;2.00;;;0.90;;
45342;SDS011;31077;50.872;4.352;2023-03-14T05:29:52;2.70;;;0.70;;
45342;SDS011;31077;50.872;4.352;2023-03-14T05:32:18;2.17;;;0.68;;
45342;SDS011;31077;50.872;4.352;2023-03-14T05:34:43;2.55;;;1.20;;
45342;SDS011;31077;50.872;4.352;2023-03-14T05:37:09;4.80;;;1.00;;
45342;SDS011;31077;50.872;4.352;2023-03-14T05:39:35;0.55;;;0.50;;
45342;SDS011;31077;50.872;4.352;2023-03-14T05:42:01;3.10;;;1.23;;
45342;SDS011;31077;50.872;4.352;2023-03-14T05:44:27;0.98;;;0.65;;
45342;SDS011;31077;50.872;4.352;2023-03-14T05:46:52;1.65;;;0.70;;
45342;SDS011;31077;50.872;4.352;2023-03-14T05:49:18;2.20;;;0.70;;
45342;SDS011;31077;50.872;4.352;2023-03-14T05:51:44;1.50;;;0.60;;
45342;SDS011;31077;50.872;4.352;2023-03-14T05:54:10;2.80;;;0.82;;
45342;SDS011;31077;50.872;4.352;2023-03-14T05:56:35;3.47;;;0.63;;
45342;SDS011;31077;50.872;4.352;2023-03-14T05:59:01;1.55;;;0.77;;
45342;SDS011;31077;50.872;4.352;2023-03-14T06:01:28;1.45;;;0.80;;
45342;SDS011;31077;50.872;4.352;2023-03-14T06:03:54;1.63;;;0.90;;
45342;SDS011;31077;50.872;4.352;2023-03-14T06:06:20;0.82;;;0.60;;
45342;SDS011;31077;50.872;4.352;2023-03-14T06:08:46;4.78;;;0.90;;
45342;SDS011;31077;50.872;4.352;2023-03-14T06:11:12;3.33;;;0.68;;
45342;SDS011;31077;50.872;4.352;2023-03-14T06:13:38;1.65;;;0.50;;
45342;SDS011;31077;50.872;4.352;2023-03-14T06:16:03;1.27;;;0.63;;
45342;SDS011;31077;50.872;4.352;2023-03-14T06:18:30;1.48;;;0.75;;
45342;SDS011;31077;50.872;4.352;2023-03-14T06:20:56;1.10;;;0.70;;
45342;SDS011;31077;50.872;4.352;2023-03-14T06:23:22;2.55;;;0.73;;
45342;SDS011;31077;50.872;4.352;2023-03-14T06:25:48;1.30;;;0.50;;
45342;SDS011;31077;50.872;4.352;2023-03-14T06:28:14;2.33;;;0.82;;
45342;SDS011;31077;50.872;4.352;2023-03-14T06:30:40;1.38;;;0.70;;
45342;SDS011;31077;50.872;4.352;2023-03-14T06:33:06;0.93;;;0.52;;
45342;SDS011;31077;50.872;4.352;2023-03-14T06:35:32;1.38;;;0.68;;
45342;SDS011;31077;50.872;4.352;2023-03-14T06:37:58;0.70;;;0.52;;
45342;SDS011;31077;50.872;4.352;2023-03-14T06:40:24;1.52;;;0.70;;
45342;SDS011;31077;50.872;4.352;2023-03-14T06:42:50;4.57;;;0.68;;
45342;SDS011;31077;50.872;4.352;2023-03-14T06:45:16;1.02;;;0.60;;
45342;SDS011;31077;50.872;4.352;2023-03-14T06:47:42;1.73;;;0.47;;
45342;SDS011;31077;50.872;4.352;2023-03-14T06:50:08;1.30;;;0.57;;
45342;SDS011;31077;50.872;4.352;2023-03-14T06:52:35;0.40;;;0.25;;
45342;SDS011;31077;50.872;4.352;2023-03-14T06:55:01;0.77;;;0.52;;
45342;SDS011;31077;50.872;4.352;2023-03-14T06:57:27;0.98;;;0.60;;
45342;SDS011;31077;50.872;4.352;2023-03-14T06:59:54;0.70;;;0.50;;
45342;SDS011;31077;50.872;4.352;2023-03-14T07:02:19;1.00;;;0.70;;
45342;SDS011;31077;50.872;4.352;2023-03-14T07:04:48;1.17;;;0.50;;
45342;SDS011;31077;50.872;4.352;2023-03-14T07:07:14;2.15;;;0.57;;
45342;SDS011;31077;50.872;4.352;2023-03-14T07:09:41;0.93;;;0.60;;
45342;SDS011;31077;50.872;4.352;2023-03-14T07:12:07;1.23;;;0.55;;
45342;SDS011;31077;50.872;4.352;2023-03-14T07:14:33;0.82;;;0.40;;
45342;SDS011;31077;50.872;4.352;2023-03-14T07:16:58;1.27;;;0.60;;
45342;SDS011;31077;50.872;4.352;2023-03-14T07:19:24;0.70;;;0.40;;
45342;SDS011;31077;50.872;4.352;2023-03-14T07:21:50;0.52;;;0.40;;
45342;SDS011;31077;50.872;4.352;2023-03-14T07:24:16;0.85;;;0.45;;
45342;SDS011;31077;50.872;4.352;2023-03-14T07:26:42;3.38;;;0.77;;
45342;SDS011;31077;50.872;4.352;2023-03-14T07:29:08;1.30;;;0.70;;
45342;SDS011;31077;50.872;4.352;2023-03-14T07:31:33;1.00;;;0.40;;
45342;SDS011;31077;50.872;4.352;2023-03-14T07:33:59;1.60;;;0.47;;
45342;SDS011;31077;50.872;4.352;2023-03-14T07:36:25;0.93;;;0.40;;
45342;SDS011;31077;50.872;4.352;2023-03-14T07:38:51;1.25;;;0.50;;
45342;SDS011;31077;50.872;4.352;2023-03-14T07:41:17;2.45;;;0.70;;
45342;SDS011;31077;50.872;4.352;2023-03-14T07:43:45;1.17;;;0.40;;
45342;SDS011;31077;50.872;4.352;2023-03-14T07:46:11;4.28;;;0.77;;
45342;SDS011;31077;50.872;4.352;2023-03-14T07:48:37;1.27;;;0.60;;
45342;SDS011;31077;50.872;4.352;2023-03-14T07:51:03;0.95;;;0.40;;
45342;SDS011;31077;50.872;4.352;2023-03-14T07:53:29;1.13;;;0.60;;
45342;SDS011;31077;50.872;4.352;2023-03-14T07:55:55;1.05;;;0.57;;
45342;SDS011;31077;50.872;4.352;2023-03-14T07:58:21;1.10;;;0.40;;
45342;SDS011;31077;50.872;4.352;2023-03-14T08:00:47;0.93;;;0.55;;
45342;SDS011;31077;50.872;4.352;2023-03-14T08:03:13;2.20;;;0.57;;
45342;SDS011;31077;50.872;4.352;2023-03-14T08:05:39;0.70;;;0.40;;
45342;SDS011;31077;50.872;4.352;2023-03-14T08:08:05;0.45;;;0.38;;
45342;SDS011;31077;50.872;4.352;2023-03-14T08:10:31;1.35;;;0.65;;
45342;SDS011;31077;50.872;4.352;2023-03-14T08:12:58;0.85;;;0.50;;
45342;SDS011;31077;50.872;4.352;2023-03-14T08:15:25;0.40;;;0.40;;
45342;SDS011;31077;50.872;4.352;2023-03-14T08:17:52;1.85;;;0.85;;
45342;SDS011;31077;50.872;4.352;2023-03-14T08:20:19;1.40;;;0.70;;
45342;SDS011;31077;50.872;4.352;2023-03-14T08:22:46;2.10;;;0.65;;
45342;SDS011;31077;50.872;4.352;2023-03-14T08:25:13;1.25;;;0.57;;
45342;SDS011;31077;50.872;4.352;2023-03-14T08:27:39;1.30;;;0.50;;
45342;SDS011;31077;50.872;4.352;2023-03-14T08:30:08;0.55;;;0.50;;
45342;SDS011;31077;50.872;4.352;2023-03-14T08:32:38;3.92;;;0.80;;
45342;SDS011;31077;50.872;4.352;2023-03-14T08:35:04;3.17;;;0.98;;
45342;SDS011;31077;50.872;4.352;2023-03-14T08:37:31;1.13;;;0.45;;
45342;SDS011;31077;50.872;4.352;2023-03-14T08:39:58;2.50;;;0.50;;
45342;SDS011;31077;50.872;4.352;2023-03-14T08:42:24;6.78;;;0.60;;
45342;SDS011;31077;50.872;4.352;2023-03-14T08:44:50;1.45;;;0.50;;
45342;SDS011;31077;50.872;4.352;2023-03-14T08:47:17;2.25;;;0.80;;
45342;SDS011;31077;50.872;4.352;2023-03-14T08:49:43;0.80;;;0.40;;
45342;SDS011;31077;50.872;4.352;2023-03-14T08:52:09;1.35;;;0.47;;
45342;SDS011;31077;50.872;4.352;2023-03-14T08:54:35;1.27;;;0.43;;
45342;SDS011;31077;50.872;4.352;2023-03-14T08:57:00;1.58;;;0.50;;
45342;SDS011;31077;50.872;4.352;2023-03-14T08:59:26;1.05;;;0.70;;
45342;SDS011;31077;50.872;4.352;2023-03-14T09:01:52;0.95;;;0.52;;
45342;SDS011;31077;50.872;4.352;2023-03-14T09:04:19;1.35;;;0.50;;
45342;SDS011;31077;50.872;4.352;2023-03-14T09:06:45;1.33;;;0.50;;
45342;SDS011;31077;50.872;4.352;2023-03-14T09:09:11;1.40;;;0.65;;
45342;SDS011;31077;50.872;4.352;2023-03-14T09:11:38;2.25;;;0.80;;
45342;SDS011;31077;50.872;4.352;2023-03-14T09:14:05;4.65;;;0.88;;
45342;SDS011;31077;50.872;4.352;2023-03-14T09:16:30;1.27;;;0.52;;
45342;SDS011;31077;50.872;4.352;2023-03-14T09:18:57;2.25;;;0.80;;
45342;SDS011;31077;50.872;4.352;2023-03-14T09:21:25;0.77;;;0.40;;
45342;SDS011;31077;50.872;4.352;2023-03-14T09:23:54;2.58;;;0.80;;
45342;SDS011;31077;50.872;4.352;2023-03-14T09:26:20;1.70;;;0.70;;
45342;SDS011;31077;50.872;4.352;2023-03-14T09:28:45;0.73;;;0.52;;
45342;SDS011;31077;50.872;4.352;2023-03-14T09:31:12;1.48;;;0.70;;
45342;SDS011;31077;50.872;4.352;2023-03-14T09:33:38;1.38;;;0.70;;
45342;SDS011;31077;50.872;4.352;2023-03-14T09:36:05;1.58;;;0.70;;
45342;SDS011;31077;50.872;4.352;2023-03-14T09:38:32;0.98;;;0.60;;
45342;SDS011;31077;50.872;4.352;2023-03-14T09:40:58;1.50;;;0.60;;
45342;SDS011;31077;50.872;4.352;2023-03-14T09:43:26;2.45;;;0.90;;
45342;SDS011;31077;50.872;4.352;2023-03-14T09:45:56;2.38;;;0.88;;
45342;SDS011;31077;50.872;4.352;2023-03-14T09:48:26;3.72;;;1.05;;
45342;SDS011;31077;50.872;4.352;2023-03-14T09:50:54;2.80;;;0.90;;
45342;SDS011;31077;50.872;4.352;2023-03-14T09:53:23;1.40;;;0.70;;
45342;SDS011;31077;50.872;4.352;2023-03-14T09:56:01;1.67;;;0.85;;
45342;SDS011;31077;50.872;4.352;2023-03-14T09:58:27;4.97;;;0.95;;
45342;SDS011;31077;50.872;4.352;2023-03-14T10:00:55;1.98;;;0.90;;
45342;SDS011;31077;50.872;4.352;2023-03-14T10:05:56;3.22;;;0.98;;
45342;SDS011;31077;50.872;4.352;2023-03-14T10:08:22;1.42;;;0.65;;
45342;SDS011;31077;50.872;4.352;2023-03-14T10:10:48;1.55;;;0.95;;
45342;SDS011;31077;50.872;4.352;2023-03-14T10:13:16;4.82;;;0.80;;
45342;SDS011;31077;50.872;4.352;2023-03-14T10:15:51;2.45;;;0.88;;
45342;SDS011;31077;50.872;4.352;2023-03-14T10:18:18;2.25;;;0.80;;
45342;SDS011;31077;50.872;4.352;2023-03-14T10:20:45;2.17;;;1.00;;
45342;SDS011;31077;50.872;4.352;2023-03-14T10:25:40;2.17;;;1.02;;
45342;SDS011;31077;50.872;4.352;2023-03-14T10:28:44;1.83;;;0.88;;
45342;SDS011;31077;50.872;4.352;2023-03-14T10:31:09;1.90;;;0.90;;
45342;SDS011;31077;50.872;4.352;2023-03-14T10:33:36;1.05;;;0.80;;
45342;SDS011;31077;50.872;4.352;2023-03-14T10:38:50;2.70;;;1.00;;
45342;SDS011;31077;50.872;4.352;2023-03-14T10:41:30;2.58;;;1.10;;
45342;SDS011;31077;50.872;4.352;2023-03-14T10:43:58;3.10;;;1.20;;
45342;SDS011;31077;50.872;4.352;2023-03-14T10:46:26;1.15;;;0.82;;
45342;SDS011;31077;50.872;4.352;2023-03-14T10:48:56;2.85;;;1.15;;
45342;SDS011;31077;50.872;4.352;2023-03-14T10:51:26;2.53;;;0.93;;
45342;SDS011;31077;50.872;4.352;2023-03-14T10:56:28;1.75;;;0.70;;
45342;SDS011;31077;50.872;4.352;2023-03-14T10:58:59;3.88;;;0.93;;
45342;SDS011;31077;50.872;4.352;2023-03-14T11:01:32;2.08;;;0.80;;
45342;SDS011;31077;50.872;4.352;2023-03-14T11:06:50;2.20;;;1.10;;
45342;SDS011;31077;50.872;4.352;2023-03-14T11:09:29;2.90;;;1.20;;
45342;SDS011;31077;50.872;4.352;2023-03-14T11:14:58;1.70;;;0.90;;
45342;SDS011;31077;50.872;4.352;2023-03-14T11:17:41;2.65;;;0.93;;
45342;SDS011;31077;50.872;4.352;2023-03-14T11:20:27;2.90;;;1.05;;
45342;SDS011;31077;50.872;4.352;2023-03-14T11:23:04;2.92;;;1.13;;
45342;SDS011;31077;50.872;4.352;2023-03-14T11:31:04;1.52;;;0.82;;
45342;SDS011;31077;50.872;4.352;2023-03-14T11:36:10;0.93;;;0.73;;
45342;SDS011;31077;50.872;4.352;2023-03-14T11:38:50;1.77;;;0.65;;
45342;SDS011;31077;50.872;4.352;2023-03-14T11:41:23;7.22;;;1.08;;
45342;SDS011;31077;50.872;4.352;2023-03-14T11:43:55;0.95;;;0.60;;
45342;SDS011;31077;50.872;4.352;2023-03-14T11:46:39;2.13;;;0.88;;
45342;SDS011;31077;50.872;4.352;2023-03-14T11:49:26;1.27;;;0.70;;
45342;SDS011;31077;50.872;4.352;2023-03-14T11:57:55;1.67;;;0.65;;
45342;SDS011;31077;50.872;4.352;2023-03-14T12:00:25;1.95;;;0.80;;
45342;SDS011;31077;50.872;4.352;2023-03-14T12:03:00;3.58;;;0.80;;
45342;SDS011;31077;50.872;4.352;2023-03-14T12:11:01;17.10;;;1.40;;
45342;SDS011;31077;50.872;4.352;2023-03-14T12:13:32;15.32;;;0.65;;
45342;SDS011;31077;50.872;4.352;2023-03-14T12:16:03;6.55;;;0.77;;
45342;SDS011;31077;50.872;4.352;2023-03-14T12:18:50;2.95;;;0.82;;
45342;SDS011;31077;50.872;4.352;2023-03-14T12:21:17;7.55;;;0.65;;
45342;SDS011;31077;50.872;4.352;2023-03-14T12:23:54;2.88;;;0.55;;
45342;SDS011;31077;50.872;4.352;2023-03-14T12:26:25;5.03;;;0.73;;
45342;SDS011;31077;50.872;4.352;2023-03-14T12:28:52;7.05;;;1.67;;
45342;SDS011;31077;50.872;4.352;2023-03-14T12:31:46;1.17;;;0.68;;
45342;SDS011;31077;50.872;4.352;2023-03-14T12:34:39;3.53;;;0.60;;
45342;SDS011;31077;50.872;4.352;2023-03-14T12:37:23;1.25;;;0.60;;
45342;SDS011;31077;50.872;4.352;2023-03-14T12:40:21;2.38;;;0.80;;
45342;SDS011;31077;50.872;4.352;2023-03-14T12:45:33;0.45;;;0.45;;
45342;SDS011;31077;50.872;4.352;2023-03-14T12:48:02;2.53;;;0.60;;
45342;SDS011;31077;50.872;4.352;2023-03-14T12:50:53;0.77;;;0.50;;
45342;SDS011;31077;50.872;4.352;2023-03-14T12:53:35;1.15;;;0.55;;
45342;SDS011;31077;50.872;4.352;2023-03-14T12:56:50;1.00;;;0.45;;
45342;SDS011;31077;50.872;4.352;2023-03-14T13:01:53;1.45;;;0.57;;
45342;SDS011;31077;50.872;4.352;2023-03-14T13:04:26;1.20;;;0.50;;
45342;SDS011;31077;50.872;4.352;2023-03-14T13:07:01;10.70;;;0.80;;
45342;SDS011;31077;50.872;4.352;2023-03-14T13:12:09;1.90;;;0.88;;
45342;SDS011;31077;50.872;4.352;2023-03-14T13:14:41;2.70;;;0.68;;
45342;SDS011;31077;50.872;4.352;2023-03-14T13:17:13;3.65;;;0.65;;
45342;SDS011;31077;50.872;4.352;2023-03-14T13:19:40;4.10;;;0.60;;
45342;SDS011;31077;50.872;4.352;2023-03-14T13:25:02;1.70;;;0.70;;
45342;SDS011;31077;50.872;4.352;2023-03-14T13:27:34;3.45;;;0.80;;
45342;SDS011;31077;50.872;4.352;2023-03-14T13:32:41;3.75;;;0.60;;
45342;SDS011;31077;50.872;4.352;2023-03-14T13:35:20;1.73;;;0.80;;
45342;SDS011;31077;50.872;4.352;2023-03-14T13:37:52;3.55;;;0.90;;
45342;SDS011;31077;50.872;4.352;2023-03-14T13:40:28;2.72;;;0.80;;
45342;SDS011;31077;50.872;4.352;2023-03-14T13:43:03;2.00;;;0.80;;
45342;SDS011;31077;50.872;4.352;2023-03-14T13:45:31;6.55;;;0.80;;
45342;SDS011;31077;50.872;4.352;2023-03-14T13:48:08;2.30;;;1.13;;
45342;SDS011;31077;50.872;4.352;2023-03-14T13:50:36;1.42;;;0.90;;
45342;SDS011;31077;50.872;4.352;2023-03-14T13:53:02;2.40;;;1.05;;
45342;SDS011;31077;50.872;4.352;2023-03-14T13:55:28;4.43;;;1.10;;
45342;SDS011;31077;50.872;4.352;2023-03-14T13:57:55;3.20;;;1.25;;
45342;SDS011;31077;50.872;4.352;2023-03-14T14:00:22;2.47;;;1.23;;
45342;SDS011;31077;50.872;4.352;2023-03-14T14:02:52;3.97;;;1.35;;
45342;SDS011;31077;50.872;4.352;2023-03-14T14:05:25;12.25;;;1.17;;
45342;SDS011;31077;50.872;4.352;2023-03-14T14:07:57;4.47;;;1.70;;
45342;SDS011;31077;50.872;4.352;2023-03-14T14:10:23;6.20;;;1.20;;
45342;SDS011;31077;50.872;4.352;2023-03-14T14:12:56;6.68;;;1.52;;
45342;SDS011;31077;50.872;4.352;2023-03-14T14:15:28;14.80;;;1.55;;
45342;SDS011;31077;50.872;4.352;2023-03-14T14:18:07;6.38;;;1.75;;
45342;SDS011;31077;50.872;4.352;2023-03-14T14:20:38;9.70;;;1.60;;
45342;SDS011;31077;50.872;4.352;2023-03-14T14:23:10;8.20;;;2.17;;
45342;SDS011;31077;50.872;4.352;2023-03-14T14:25:38;11.95;;;1.73;;
45342;SDS011;31077;50.872;4.352;2023-03-14T14:31:03;3.80;;;1.40;;
45342;SDS011;31077;50.872;4.352;2023-03-14T14:33:40;5.10;;;1.92;;
45342;SDS011;31077;50.872;4.352;2023-03-14T14:36:18;4.63;;;1.40;;
45342;SDS011;31077;50.872;4.352;2023-03-14T14:39:05;3.80;;;1.40;;
45342;SDS011;31077;50.872;4.352;2023-03-14T14:41:50;7.57;;;1.50;;
45342;SDS011;31077;50.872;4.352;2023-03-14T14:44:18;6.40;;;1.50;;
45342;SDS011;31077;50.872;4.352;2023-03-14T14:46:51;4.80;;;1.52;;
45342;SDS011;31077;50.872;4.352;2023-03-14T14:49:18;4.93;;;1.70;;
45342;SDS011;31077;50.872;4.352;2023-03-14T14:51:48;9.57;;;1.63;;
45342;SDS011;31077;50.872;4.352;2023-03-14T14:54:19;4.32;;;1.40;;
45342;SDS011;31077;50.872;4.352;2023-03-14T14:57:01;5.18;;;1.48;;
45342;SDS011;31077;50.872;4.352;2023-03-14T14:59:28;4.30;;;1.25;;
45342;SDS011;31077;50.872;4.352;2023-03-14T15:01:55;4.10;;;1.38;;
45342;SDS011;31077;50.872;4.352;2023-03-14T15:04:22;3.92;;;1.55;;
45342;SDS011;31077;50.872;4.352;2023-03-14T15:06:49;2.80;;;1.10;;
45342;SDS011;31077;50.872;4.352;2023-03-14T15:09:15;4.30;;;1.08;;
45342;SDS011;31077;50.872;4.352;2023-03-14T15:11:45;4.03;;;1.20;;
45342;SDS011;31077;50.872;4.352;2023-03-14T15:14:11;6.38;;;1.20;;
45342;SDS011;31077;50.872;4.352;2023-03-14T15:16:37;2.17;;;1.00;;
45342;SDS011;31077;50.872;4.352;2023-03-14T15:19:09;1.95;;;1.13;;
45342;SDS011;31077;50.872;4.352;2023-03-14T15:21:41;4.57;;;1.02;;
45342;SDS011;31077;50.872;4.352;2023-03-14T15:24:08;2.67;;;0.82;;
45342;SDS011;31077;50.872;4.352;2023-03-14T15:26:34;2.67;;;1.02;;
45342;SDS011;31077;50.872;4.352;2023-03-14T15:29:00;1.77;;;0.70;;
45342;SDS011;31077;50.872;4.352;2023-03-14T15:31:26;2.05;;;0.85;;
45342;SDS011;31077;50.872;4.352;2023-03-14T15:33:52;2.22;;;0.88;;
45342;SDS011;31077;50.872;4.352;2023-03-14T15:38:49;1.40;;;0.50;;
45342;SDS011;31077;50.872;4.352;2023-03-14T15:41:16;2.63;;;1.08;;
45342;SDS011;31077;50.872;4.352;2023-03-14T15:43:45;2.83;;;0.93;;
45342;SDS011;31077;50.872;4.352;2023-03-14T15:46:11;2.17;;;0.80;;
45342;SDS011;31077;50.872;4.352;2023-03-14T15:48:38;2.42;;;1.00;;
45342;SDS011;31077;50.872;4.352;2023-03-14T15:51:04;2.65;;;0.88;;
45342;SDS011;31077;50.872;4.352;2023-03-14T15:53:32;1.38;;;0.77;;
45342;SDS011;31077;50.872;4.352;2023-03-14T15:56:02;2.03;;;0.80;;
45342;SDS011;31077;50.872;4.352;2023-03-14T15:58:32;1.30;;;0.65;;
45342;SDS011;31077;50.872;4.352;2023-03-14T16:01:05;2.05;;;0.90;;
45342;SDS011;31077;50.872;4.352;2023-03-14T16:03:33;2.50;;;1.05;;